createdAt,value
2018-11-29T00:03:42.949Z,-1.24
2018-11-29T00:06:12.873Z,-1.14
2018-11-29T00:08:42.751Z,-1.10
2018-11-29T00:11:12.688Z,-1.10
2018-11-29T00:13:42.675Z,-1.04
2018-11-29T00:16:12.558Z,-1.05
2018-11-29T00:18:42.449Z,-1.14
2018-11-29T00:21:12.376Z,-1.16
2018-11-29T00:23:42.340Z,-1.14
2018-11-29T00:26:12.757Z,-1.13
2018-11-29T00:28:42.659Z,-1.17
2018-11-29T00:31:12.618Z,-1.12
2018-11-29T00:33:42.583Z,-1.09
2018-11-29T00:36:12.519Z,-1.05
2018-11-29T00:38:43.868Z,-1.14
2018-11-29T00:41:13.719Z,-1.08
2018-11-29T00:43:43.628Z,-1.06
2018-11-29T00:46:13.578Z,-1.03
2018-11-29T00:48:43.460Z,-1.04
2018-11-29T00:51:13.429Z,-1.05
2018-11-29T00:53:43.429Z,-1.02
2018-11-29T00:56:13.374Z,-0.95
2018-11-29T00:58:43.317Z,-0.95
2018-11-29T01:01:13.205Z,-0.93
2018-11-29T01:03:43.148Z,-0.89
2018-11-29T01:06:13.048Z,-0.84
2018-11-29T01:08:43.024Z,-0.82
2018-11-29T01:11:12.952Z,-0.75
2018-11-29T01:13:45.707Z,-0.65
2018-11-29T01:16:15.861Z,-0.69
2018-11-29T01:18:45.885Z,-0.81
2018-11-29T01:21:15.828Z,-0.88
2018-11-29T01:23:45.883Z,-0.92
2018-11-29T01:26:15.856Z,-1.03
2018-11-29T01:28:45.832Z,-1.04
2018-11-29T01:31:16.150Z,-1.09
2018-11-29T01:33:46.028Z,-1.11
2018-11-29T01:36:15.979Z,-1.13
2018-11-29T01:38:45.848Z,-1.11
2018-11-29T01:41:15.809Z,-1.11
2018-11-29T01:43:46.071Z,-1.13
2018-11-29T01:46:15.991Z,-1.10
2018-11-29T01:48:45.808Z,-1.06
2018-11-29T01:51:15.816Z,-1.12
2018-11-29T01:53:45.735Z,-1.10
2018-11-29T01:56:16.024Z,-1.08
2018-11-29T01:58:45.894Z,-1.08
2018-11-29T02:01:15.822Z,-1.13
2018-11-29T02:03:45.723Z,-1.08
2018-11-29T02:06:15.672Z,-1.10
2018-11-29T02:08:45.623Z,-1.16
2018-11-29T02:11:15.509Z,-1.13
2018-11-29T02:13:45.521Z,-1.11
2018-11-29T02:16:15.456Z,-1.07
2018-11-29T02:18:45.430Z,-1.11
2018-11-29T02:21:15.805Z,-1.08
2018-11-29T02:23:45.798Z,-1.11
2018-11-29T02:26:15.895Z,-1.14
2018-11-29T02:28:48.569Z,-1.09
2018-11-29T02:31:18.437Z,-1.06
2018-11-29T02:36:39.111Z,-1.08
2018-11-29T02:39:10.311Z,-1.01
2018-11-29T02:41:40.560Z,-1.04
2018-11-29T02:44:10.676Z,-1.01
2018-11-29T02:46:40.503Z,-1.05
2018-11-29T02:49:10.492Z,-1.05
2018-11-29T02:51:40.427Z,-1.00
2018-11-29T02:54:10.362Z,-1.03
2018-11-29T02:56:40.238Z,-1.01
2018-11-29T02:59:10.858Z,-1.02
2018-11-29T03:01:40.819Z,-0.95
2018-11-29T03:04:10.704Z,-0.91
2018-11-29T03:06:40.655Z,-0.91
2018-11-29T03:09:10.609Z,-0.80
2018-11-29T03:11:40.850Z,-0.72
2018-11-29T03:14:10.839Z,-0.67
2018-11-29T03:16:40.767Z,-0.73
2018-11-29T03:19:11.077Z,-0.62
2018-11-29T03:21:41.004Z,-0.65
2018-11-29T03:24:11.021Z,-0.73
2018-11-29T03:26:40.943Z,-0.70
2018-11-29T03:29:10.921Z,-0.73
2018-11-29T03:31:40.906Z,-0.77
2018-11-29T03:34:10.860Z,-0.75
2018-11-29T03:36:40.864Z,-0.88
2018-11-29T03:39:11.230Z,-0.82
2018-11-29T03:41:41.127Z,-0.88
2018-11-29T03:44:11.124Z,-0.90
2018-11-29T03:46:40.946Z,-0.92
2018-11-29T03:49:10.904Z,-0.85
2018-11-29T03:51:43.874Z,-0.87
2018-11-29T03:54:13.805Z,-0.89
2018-11-29T03:56:43.762Z,-0.83
2018-11-29T03:59:13.721Z,-0.89
2018-11-29T04:01:43.659Z,-0.83
2018-11-29T04:04:13.606Z,-0.79
2018-11-29T04:06:43.617Z,-0.76
2018-11-29T04:09:13.507Z,-0.73
2018-11-29T04:11:43.497Z,-0.64
2018-11-29T04:14:13.421Z,-0.58
2018-11-29T04:16:43.772Z,-0.56
2018-11-29T04:19:13.729Z,-0.57
2018-11-29T04:21:43.706Z,-0.58
2018-11-29T04:24:13.707Z,-0.52
2018-11-29T04:26:44.487Z,-0.44
2018-11-29T04:29:14.457Z,-0.42
2018-11-29T04:31:44.329Z,-0.35
2018-11-29T04:34:14.293Z,-0.32
2018-11-29T04:36:44.231Z,-0.24
2018-11-29T04:39:14.216Z,-0.14
2018-11-29T04:41:44.319Z,-0.04
2018-11-29T04:44:14.223Z,0.07
2018-11-29T04:46:46.163Z,0.24
2018-11-29T04:49:16.065Z,0.24
2018-11-29T04:51:46.101Z,0.29
2018-11-29T04:54:16.045Z,0.32
2018-11-29T04:56:46.079Z,0.44
2018-11-29T04:59:15.945Z,0.53
2018-11-29T05:01:45.932Z,0.63
2018-11-29T05:04:15.883Z,0.78
2018-11-29T05:06:45.764Z,0.83
2018-11-29T05:09:15.689Z,0.90
2018-11-29T05:11:45.960Z,1.02
2018-11-29T05:14:15.870Z,1.08
2018-11-29T05:16:45.872Z,1.15
2018-11-29T05:19:15.851Z,1.16
2018-11-29T05:21:45.784Z,1.13
2018-11-29T05:24:15.673Z,1.18
2018-11-29T05:26:45.583Z,1.22
2018-11-29T05:29:15.476Z,1.10
2018-11-29T05:31:45.406Z,1.17
2018-11-29T05:34:15.324Z,1.23
2018-11-29T05:36:45.276Z,1.25
2018-11-29T05:39:15.333Z,1.30
2018-11-29T05:41:45.590Z,1.28
2018-11-29T05:44:15.513Z,1.27
2018-11-29T05:46:46.535Z,1.29
2018-11-29T05:49:16.521Z,1.29
2018-11-29T05:51:46.403Z,1.33
2018-11-29T05:54:16.256Z,1.29
2018-11-29T05:56:46.174Z,1.28
2018-11-29T05:59:16.224Z,1.21
2018-11-29T06:01:47.206Z,1.19
2018-11-29T06:04:17.427Z,1.18
2018-11-29T06:06:47.998Z,1.18
2018-11-29T06:09:18.204Z,1.15
2018-11-29T06:11:49.566Z,1.22
2018-11-29T06:14:19.487Z,1.26
2018-11-29T06:16:49.751Z,1.28
2018-11-29T06:19:23.235Z,1.33
2018-11-29T06:21:53.246Z,1.34
2018-11-29T06:27:13.849Z,1.31
2018-11-29T06:29:43.836Z,1.33
2018-11-29T06:32:13.869Z,1.28
2018-11-29T06:34:43.888Z,1.29
2018-11-29T06:37:13.863Z,1.30
2018-11-29T06:39:43.861Z,1.28
2018-11-29T06:42:14.114Z,1.30
2018-11-29T06:44:44.248Z,1.30
2018-11-29T06:47:14.456Z,1.25
2018-11-29T06:49:44.597Z,1.18
2018-11-29T06:52:14.615Z,1.23
2018-11-29T06:54:44.715Z,1.19
2018-11-29T06:57:14.895Z,1.24
2018-11-29T06:59:44.945Z,1.24
2018-11-29T07:02:15.778Z,1.30
2018-11-29T07:04:45.856Z,1.37
2018-11-29T07:07:16.011Z,1.42
2018-11-29T07:09:46.002Z,1.55
2018-11-29T07:12:16.048Z,1.75
2018-11-29T07:14:46.267Z,2.11
2018-11-29T07:17:16.232Z,2.53
2018-11-29T07:19:46.285Z,3.00
2018-11-29T07:22:16.324Z,3.47
2018-11-29T07:24:46.367Z,3.57
2018-11-29T07:27:16.581Z,3.81
2018-11-29T07:29:46.624Z,4.31
2018-11-29T07:32:17.894Z,4.69
2018-11-29T07:34:47.876Z,4.95
2018-11-29T07:37:17.856Z,4.96
2018-11-29T07:39:47.897Z,4.75
2018-11-29T07:42:32.818Z,4.54
2018-11-29T07:45:04.578Z,4.55
2018-11-29T07:47:34.501Z,4.12
2018-11-29T07:50:04.781Z,3.85
2018-11-29T07:52:34.869Z,3.70
2018-11-29T07:55:04.961Z,3.60
2018-11-29T07:57:34.884Z,3.59
2018-11-29T08:00:09.827Z,4.54
2018-11-29T08:02:40.010Z,5.71
2018-11-29T08:05:11.363Z,6.36
2018-11-29T08:07:47.316Z,6.57
2018-11-29T08:10:16.884Z,7.03
2018-11-29T08:12:46.916Z,7.01
2018-11-29T08:15:18.395Z,7.02
2018-11-29T08:17:48.321Z,7.09
2018-11-29T08:20:19.421Z,7.32
2018-11-29T08:22:49.409Z,7.50
2018-11-29T08:25:19.534Z,7.68
2018-11-29T08:27:49.526Z,8.22
2018-11-29T08:30:19.648Z,8.55
2018-11-29T08:32:49.690Z,8.30
2018-11-29T08:35:19.826Z,8.05
2018-11-29T08:37:50.016Z,8.40
2018-11-29T08:40:20.930Z,8.38
2018-11-29T08:42:51.417Z,8.28
2018-11-29T08:45:21.540Z,7.72
2018-11-29T08:47:51.558Z,7.34
2018-11-29T08:50:21.626Z,7.28
2018-11-29T08:52:51.649Z,6.97
2018-11-29T08:55:22.124Z,6.76
2018-11-29T09:00:43.522Z,6.71
2018-11-29T09:03:13.717Z,6.99
2018-11-29T09:05:43.783Z,7.19
2018-11-29T09:08:13.803Z,7.25
2018-11-29T09:10:43.820Z,7.36
2018-11-29T09:13:13.677Z,7.32
2018-11-29T09:15:43.698Z,7.09
2018-11-29T09:18:13.695Z,6.86
2018-11-29T09:20:43.680Z,6.81
2018-11-29T09:23:13.708Z,6.84
2018-11-29T09:25:43.678Z,6.93
2018-11-29T09:28:13.620Z,7.11
2018-11-29T09:30:43.603Z,7.36
2018-11-29T09:33:13.518Z,7.40
2018-11-29T09:35:43.568Z,7.44
2018-11-29T09:38:14.735Z,7.64
2018-11-29T09:40:44.686Z,7.95
2018-11-29T09:43:14.645Z,8.43
2018-11-29T09:45:44.519Z,8.65
2018-11-29T09:48:14.518Z,8.94
2018-11-29T09:50:44.429Z,8.86
2018-11-29T09:53:14.351Z,8.93
2018-11-29T09:55:44.232Z,8.85
2018-11-29T09:58:14.272Z,8.81
2018-11-29T10:00:44.258Z,8.57
2018-11-29T10:03:16.528Z,8.52
2018-11-29T10:05:47.580Z,8.65
2018-11-29T10:08:18.732Z,8.48
2018-11-29T10:10:48.712Z,8.56
2018-11-29T10:13:18.675Z,8.65
2018-11-29T10:15:48.965Z,8.41
2018-11-29T10:18:18.951Z,8.23
2018-11-29T10:20:50.499Z,8.18
2018-11-29T10:23:20.881Z,8.10
2018-11-29T10:25:52.200Z,7.92
2018-11-29T10:28:22.221Z,7.94
2018-11-29T10:30:56.305Z,7.92
2018-11-29T10:33:26.219Z,7.84
2018-11-29T10:35:59.297Z,7.73
2018-11-29T10:38:26.339Z,7.83
2018-11-29T10:40:56.509Z,8.02
2018-11-29T10:43:26.517Z,8.23
2018-11-29T10:45:56.418Z,8.27
2018-11-29T10:48:26.676Z,8.34
2018-11-29T10:50:56.978Z,8.52
2018-11-29T10:53:26.969Z,8.65
2018-11-29T10:55:56.834Z,8.75
2018-11-29T10:58:26.835Z,8.56
2018-11-29T11:01:01.687Z,8.66
2018-11-29T11:03:32.360Z,8.90
2018-11-29T11:06:02.346Z,9.00
2018-11-29T11:08:32.314Z,9.06
2018-11-29T11:11:08.390Z,9.18
2018-11-29T11:13:39.309Z,9.22
2018-11-29T11:16:09.942Z,9.38
2018-11-29T11:18:39.604Z,9.56
2018-11-29T11:21:11.027Z,9.57
2018-11-29T11:23:43.877Z,9.49
2018-11-29T11:26:15.270Z,9.39
2018-11-29T11:28:46.693Z,9.21
2018-11-29T11:31:18.951Z,9.00
2018-11-29T11:33:49.197Z,8.84
2018-11-29T11:36:20.852Z,8.83
2018-11-29T11:38:52.300Z,8.73
2018-11-29T11:41:24.933Z,8.84
2018-11-29T11:43:54.875Z,8.96
2018-11-29T11:46:25.752Z,9.17
2018-11-29T11:48:55.799Z,9.46
2018-11-29T11:51:25.732Z,9.65
2018-11-29T11:53:55.726Z,9.80
2018-11-29T11:56:25.713Z,9.93
2018-11-29T11:58:55.713Z,9.77
2018-11-29T12:01:29.180Z,9.75
2018-11-29T12:03:59.956Z,9.92
2018-11-29T12:06:29.467Z,10.21
2018-11-29T12:08:59.440Z,10.25
2018-11-29T12:11:29.311Z,10.11
2018-11-29T12:13:59.649Z,10.03
2018-11-29T12:16:29.627Z,10.32
2018-11-29T12:19:02.434Z,10.50
2018-11-29T12:21:31.752Z,10.63
2018-11-29T12:24:01.652Z,10.68
2018-11-29T12:26:32.063Z,10.71
2018-11-29T12:29:01.947Z,10.63
2018-11-29T12:31:31.952Z,10.60
2018-11-29T12:34:01.873Z,10.63
2018-11-29T12:36:31.744Z,10.44
2018-11-29T12:39:02.069Z,10.16
2018-11-29T12:41:32.059Z,10.00
2018-11-29T12:44:02.011Z,10.00
2018-11-29T12:46:32.054Z,9.89
2018-11-29T12:49:01.950Z,10.03
2018-11-29T12:51:31.896Z,9.86
2018-11-29T12:54:01.725Z,9.88
2018-11-29T12:56:31.943Z,9.77
2018-11-29T12:59:01.894Z,9.72
2018-11-29T13:01:32.678Z,9.74
2018-11-29T13:04:03.243Z,9.58
2018-11-29T13:06:33.145Z,9.34
2018-11-29T13:09:06.228Z,9.28
2018-11-29T13:11:36.184Z,9.20
2018-11-29T13:14:06.823Z,8.97
2018-11-29T13:16:36.899Z,9.02
2018-11-29T13:19:06.992Z,8.95
2018-11-29T13:21:37.062Z,8.95
2018-11-29T13:24:07.512Z,8.76
2018-11-29T13:26:37.501Z,8.72
2018-11-29T13:29:07.567Z,8.67
2018-11-29T13:31:37.820Z,8.66
2018-11-29T13:34:07.882Z,8.52
2018-11-29T13:36:38.007Z,8.58
2018-11-29T13:39:10.055Z,8.54
2018-11-29T13:41:40.494Z,8.43
2018-11-29T13:44:10.396Z,8.27
2018-11-29T13:46:41.222Z,8.21
2018-11-29T13:49:12.848Z,8.11
2018-11-29T13:51:44.115Z,8.01
2018-11-29T13:54:14.114Z,7.93
2018-11-29T13:56:46.091Z,7.88
2018-11-29T13:59:16.721Z,7.77
2018-11-29T14:01:49.431Z,7.77
2018-11-29T14:04:20.231Z,7.66
2018-11-29T14:06:53.241Z,7.54
2018-11-29T14:09:23.306Z,7.40
2018-11-29T14:11:54.836Z,7.31
2018-11-29T14:14:25.493Z,7.17
2018-11-29T14:16:55.782Z,7.02
2018-11-29T14:19:26.623Z,7.06
2018-11-29T14:21:58.122Z,6.91
2018-11-29T14:24:28.116Z,6.75
2018-11-29T14:26:59.005Z,6.66
2018-11-29T14:29:29.324Z,6.54
2018-11-29T14:32:01.446Z,6.52
2018-11-29T14:34:31.379Z,6.35
2018-11-29T14:37:01.511Z,6.29
2018-11-29T14:39:32.713Z,6.22
2018-11-29T14:42:02.700Z,6.07
2018-11-29T14:44:32.556Z,6.07
2018-11-29T14:47:02.936Z,5.92
2018-11-29T14:49:32.941Z,5.76
2018-11-29T14:52:03.000Z,5.72
2018-11-29T14:54:32.922Z,5.71
2018-11-29T14:57:03.875Z,5.55
2018-11-29T14:59:34.246Z,5.51
2018-11-29T15:02:04.155Z,5.56
2018-11-29T15:04:34.232Z,5.47
2018-11-29T15:07:04.409Z,5.40
2018-11-29T15:09:34.475Z,5.32
2018-11-29T15:12:04.958Z,5.33
2018-11-29T15:14:35.780Z,5.18
2018-11-29T15:17:06.301Z,5.12
2018-11-29T15:19:37.637Z,5.16
2018-11-29T15:24:58.822Z,5.02
2018-11-29T15:27:28.907Z,5.04
2018-11-29T15:29:58.941Z,5.03
2018-11-29T15:32:30.589Z,4.88
2018-11-29T15:35:00.621Z,4.82
2018-11-29T15:37:31.811Z,4.79
2018-11-29T15:40:01.848Z,4.73
2018-11-29T15:42:31.974Z,4.71
2018-11-29T15:45:04.003Z,4.78
2018-11-29T15:47:36.219Z,4.65
2018-11-29T15:50:09.182Z,4.55
2018-11-29T15:52:45.990Z,4.45
2018-11-29T15:55:17.996Z,4.35
2018-11-29T15:57:48.910Z,4.26
2018-11-29T16:00:23.058Z,4.20
2018-11-29T16:02:54.055Z,4.22
2018-11-29T16:05:24.452Z,4.07
2018-11-29T16:07:54.608Z,4.10
2018-11-29T16:10:26.767Z,4.11
2018-11-29T16:12:57.163Z,4.15
2018-11-29T16:15:27.632Z,4.07
2018-11-29T16:17:57.593Z,4.01
2018-11-29T16:20:32.888Z,4.03
2018-11-29T16:23:05.197Z,3.99
2018-11-29T16:25:36.870Z,3.97
2018-11-29T16:28:08.411Z,3.95
2018-11-29T16:30:48.678Z,3.90
2018-11-29T16:33:31.600Z,3.90
2018-11-29T16:36:01.836Z,3.88
2018-11-29T16:38:31.769Z,3.94
2018-11-29T16:41:01.840Z,3.92
2018-11-29T16:43:31.718Z,3.89
2018-11-29T16:46:02.224Z,3.90
2018-11-29T16:48:33.512Z,3.87
2018-11-29T16:51:03.650Z,3.88
2018-11-29T16:53:33.855Z,3.83
2018-11-29T16:56:04.338Z,3.86
2018-11-29T16:58:36.535Z,3.85
2018-11-29T17:01:09.006Z,3.80
2018-11-29T17:03:37.400Z,3.73
2018-11-29T17:06:07.876Z,3.74
2018-11-29T17:08:37.976Z,3.64
2018-11-29T17:11:15.827Z,3.60
2018-11-29T17:13:45.927Z,3.54
2018-11-29T17:16:18.026Z,3.53
2018-11-29T17:18:48.096Z,3.53
2018-11-29T17:21:18.076Z,3.44
2018-11-29T17:23:47.973Z,3.37
2018-11-29T17:26:18.515Z,3.37
2018-11-29T17:28:49.172Z,3.41
2018-11-29T17:31:19.393Z,3.33
2018-11-29T17:33:49.344Z,3.30
2018-11-29T17:36:19.394Z,3.17
2018-11-29T17:38:49.351Z,3.21
2018-11-29T17:41:19.227Z,3.17
2018-11-29T17:43:49.628Z,3.10
2018-11-29T17:46:19.629Z,3.10
2018-11-29T17:48:49.697Z,3.09
2018-11-29T17:51:19.999Z,3.06
2018-11-29T17:53:49.972Z,3.04
2018-11-29T17:56:20.874Z,3.05
2018-11-29T17:58:51.059Z,3.04
2018-11-29T18:01:21.137Z,3.03
2018-11-29T18:03:51.492Z,3.02
2018-11-29T18:06:21.348Z,3.05
2018-11-29T18:08:51.359Z,3.01
2018-11-29T18:11:21.742Z,3.01
2018-11-29T18:13:51.505Z,2.93
2018-11-29T18:16:22.444Z,3.00
2018-11-29T18:18:52.877Z,2.98
2018-11-29T18:21:22.789Z,2.99
2018-11-29T18:23:55.501Z,2.95
2018-11-29T18:26:26.004Z,2.97
2018-11-29T18:28:56.409Z,2.99
2018-11-29T18:31:26.799Z,2.97
2018-11-29T18:33:56.851Z,2.94
2018-11-29T18:36:26.864Z,2.99
2018-11-29T18:38:57.243Z,2.87
2018-11-29T18:41:28.312Z,2.86
2018-11-29T18:43:58.289Z,2.87
2018-11-29T18:46:28.348Z,2.81
2018-11-29T18:48:58.334Z,2.76
2018-11-29T18:51:28.363Z,2.76
2018-11-29T18:53:58.400Z,2.78
2018-11-29T18:56:28.895Z,2.80
2018-11-29T18:58:58.889Z,2.77
2018-11-29T19:01:28.904Z,2.67
2018-11-29T19:03:58.811Z,2.65
2018-11-29T19:06:28.847Z,2.64
2018-11-29T19:08:58.895Z,2.66
2018-11-29T19:11:29.376Z,2.65
2018-11-29T19:13:59.786Z,2.58
2018-11-29T19:16:30.136Z,2.61
2018-11-29T19:19:00.566Z,2.66
2018-11-29T19:21:30.880Z,2.73
2018-11-29T19:24:00.906Z,2.79
2018-11-29T19:26:30.832Z,2.78
2018-11-29T19:29:02.698Z,2.86
2018-11-29T19:31:32.648Z,2.94
2018-11-29T19:34:02.726Z,2.98
2018-11-29T19:36:33.063Z,3.03
2018-11-29T19:39:03.732Z,3.12
2018-11-29T19:41:33.592Z,3.12
2018-11-29T19:44:03.538Z,3.14
2018-11-29T19:46:33.666Z,3.18
2018-11-29T19:49:03.700Z,3.20
2018-11-29T19:54:24.194Z,3.18
2018-11-29T19:56:54.136Z,3.23
2018-11-29T19:59:25.442Z,3.22
2018-11-29T20:01:55.347Z,3.26
2018-11-29T20:04:25.347Z,3.27
2018-11-29T20:06:55.432Z,3.29
2018-11-29T20:09:26.124Z,3.34
2018-11-29T20:11:56.172Z,3.31
2018-11-29T20:14:27.576Z,3.35
2018-11-29T20:16:58.451Z,3.38
2018-11-29T20:19:28.388Z,3.35
2018-11-29T20:21:58.706Z,3.36
2018-11-29T20:24:29.663Z,3.38
2018-11-29T20:26:59.766Z,3.43
2018-11-29T20:32:22.544Z,3.30
2018-11-29T20:34:52.606Z,3.35
2018-11-29T20:37:22.556Z,3.34
2018-11-29T20:39:52.765Z,3.39
2018-11-29T20:42:24.446Z,3.35
2018-11-29T20:44:55.514Z,3.45
2018-11-29T20:47:27.171Z,3.44
2018-11-29T20:49:57.901Z,3.38
2018-11-29T20:52:27.804Z,3.44
2018-11-29T20:54:57.863Z,3.46
2018-11-29T20:57:27.965Z,3.53
2018-11-29T20:59:58.792Z,3.53
2018-11-29T21:02:29.818Z,3.49
2018-11-29T21:04:59.981Z,3.48
2018-11-29T21:07:29.862Z,3.44
2018-11-29T21:10:03.172Z,3.51
2018-11-29T21:12:33.040Z,3.47
2018-11-29T21:15:08.369Z,3.40
2018-11-29T21:17:38.402Z,3.29
2018-11-29T21:20:14.191Z,3.39
2018-11-29T21:22:45.743Z,3.24
2018-11-29T21:25:17.397Z,3.34
2018-11-29T21:27:48.176Z,3.44
2018-11-29T21:30:19.466Z,3.39
2018-11-29T21:32:49.951Z,3.39
2018-11-29T21:35:22.265Z,3.63
2018-11-29T21:37:53.465Z,3.38
2018-11-29T21:40:28.639Z,3.45
2018-11-29T21:42:58.730Z,3.45
2018-11-29T21:45:28.670Z,3.49
2018-11-29T21:47:59.154Z,3.45
2018-11-29T21:50:29.192Z,3.31
2018-11-29T21:52:59.258Z,3.38
2018-11-29T21:55:29.807Z,3.28
2018-11-29T21:57:59.615Z,3.09
2018-11-29T22:00:29.621Z,3.16
2018-11-29T22:03:00.499Z,3.27
2018-11-29T22:05:30.597Z,3.29
2018-11-29T22:08:00.469Z,3.60
2018-11-29T22:10:30.444Z,3.59
2018-11-29T22:13:00.819Z,3.53
2018-11-29T22:15:30.259Z,3.65
2018-11-29T22:18:32.311Z,3.55
2018-11-29T22:21:05.649Z,3.51
2018-11-29T22:23:36.927Z,3.44
2018-11-29T22:26:10.003Z,3.38
2018-11-29T22:28:40.296Z,3.37
2018-11-29T22:31:10.274Z,3.33
2018-11-29T22:33:40.449Z,3.40
2018-11-29T22:36:10.426Z,3.42
2018-11-29T22:38:44.359Z,3.47
2018-11-29T22:41:12.557Z,3.51
2018-11-29T22:43:42.586Z,3.43
2018-11-29T22:46:13.000Z,3.54
2018-11-29T22:48:43.319Z,3.54
2018-11-29T22:51:19.077Z,3.59
2018-11-29T22:53:52.922Z,3.59
2018-11-29T22:56:23.585Z,3.50
2018-11-29T22:58:55.376Z,3.73
2018-11-29T23:01:39.519Z,3.64
2018-11-29T23:04:15.577Z,3.75
2018-11-29T23:06:53.635Z,3.73
2018-11-29T23:09:28.474Z,3.64
2018-11-29T23:12:04.060Z,3.67
2018-11-29T23:14:40.176Z,3.62
2018-11-29T23:17:12.868Z,3.59
2018-11-29T23:19:50.121Z,3.64
2018-11-29T23:22:21.470Z,3.67
2018-11-29T23:24:53.593Z,3.69
2018-11-29T23:27:25.728Z,3.63
2018-11-29T23:29:56.967Z,3.69
2018-11-29T23:32:26.827Z,3.71
2018-11-29T23:34:56.701Z,3.72
2018-11-29T23:37:26.616Z,3.70
2018-11-29T23:39:56.467Z,3.72
2018-11-29T23:42:27.306Z,3.77
2018-11-29T23:44:57.954Z,3.66
2018-11-29T23:47:27.894Z,3.69
2018-11-29T23:49:57.758Z,3.72
2018-11-29T23:52:27.647Z,3.76
2018-11-29T23:54:57.891Z,3.79
2018-11-29T23:57:27.838Z,3.75
2018-11-29T23:59:58.473Z,3.76
